createdAt,value
2018-12-13T00:00:53.660Z,118.70
2018-12-13T00:03:22.710Z,117.50
2018-12-13T00:05:51.860Z,116.10
2018-12-13T00:08:20.965Z,115.43
2018-12-13T00:10:49.984Z,116.37
2018-12-13T00:13:19.613Z,110.80
2018-12-13T00:15:48.600Z,112.27
2018-12-13T00:18:18.239Z,110.60
2018-12-13T00:20:47.243Z,109.93
2018-12-13T00:23:16.627Z,108.93
2018-12-13T00:25:45.591Z,110.10
2018-12-13T00:28:15.034Z,112.00
2018-12-13T00:30:44.034Z,109.20
2018-12-13T00:33:13.120Z,109.10
2018-12-13T00:35:42.014Z,105.40
2018-12-13T00:38:11.035Z,105.10
2018-12-13T00:40:39.996Z,104.43
2018-12-13T00:43:09.053Z,107.70
2018-12-13T00:45:38.074Z,104.30
2018-12-13T00:48:07.082Z,102.67
2018-12-13T00:50:36.030Z,104.77
2018-12-13T00:53:04.983Z,102.20
2018-12-13T00:55:34.119Z,99.97
2018-12-13T00:58:03.121Z,96.97
2018-12-13T01:00:32.056Z,98.60
2018-12-13T01:03:01.049Z,94.30
2018-12-13T01:05:30.059Z,91.50
2018-12-13T01:07:59.052Z,90.03
2018-12-13T01:10:28.470Z,88.97
2018-12-13T01:12:57.490Z,85.37
2018-12-13T01:15:30.613Z,84.60
2018-12-13T01:17:59.783Z,82.63
2018-12-13T01:20:29.303Z,80.20
2018-12-13T01:22:59.008Z,77.83
2018-12-13T01:25:28.067Z,73.90
2018-12-13T01:27:57.181Z,73.30
2018-12-13T01:30:26.396Z,73.70
2018-12-13T01:32:55.372Z,69.73
2018-12-13T01:35:24.403Z,69.10
2018-12-13T01:37:53.313Z,65.00
2018-12-13T01:40:22.311Z,67.30
2018-12-13T01:42:51.343Z,62.63
2018-12-13T01:45:20.255Z,61.43
2018-12-13T01:47:49.264Z,60.93
2018-12-13T01:50:18.250Z,60.37
2018-12-13T01:52:47.385Z,57.47
2018-12-13T01:55:16.401Z,58.57
2018-12-13T01:57:45.529Z,54.97
2018-12-13T02:00:14.611Z,53.67
2018-12-13T02:02:43.521Z,52.67
2018-12-13T02:05:12.530Z,50.43
2018-12-13T02:07:41.564Z,49.57
2018-12-13T02:10:11.413Z,49.10
2018-12-13T02:12:40.384Z,48.73
2018-12-13T02:15:09.411Z,45.97
2018-12-13T02:17:38.529Z,46.37
2018-12-13T02:20:07.530Z,45.10
2018-12-13T02:22:36.533Z,43.43
2018-12-13T02:25:05.701Z,41.87
2018-12-13T02:27:34.752Z,42.13
2018-12-13T02:30:03.859Z,41.03
2018-12-13T02:32:32.993Z,39.83
2018-12-13T02:35:01.815Z,37.80
2018-12-13T02:37:30.845Z,39.20
2018-12-13T02:39:59.939Z,38.00
2018-12-13T02:42:29.019Z,35.80
2018-12-13T02:44:58.096Z,35.97
2018-12-13T02:47:27.137Z,37.60
2018-12-13T02:49:56.151Z,35.63
2018-12-13T02:52:25.186Z,34.30
2018-12-13T02:54:54.107Z,34.00
2018-12-13T02:57:23.199Z,34.30
2018-12-13T02:59:52.091Z,33.93
2018-12-13T03:02:21.012Z,33.30
2018-12-13T03:04:50.044Z,32.60
2018-12-13T03:07:19.038Z,32.27
2018-12-13T03:09:48.152Z,31.20
2018-12-13T03:12:17.180Z,31.90
2018-12-13T03:14:46.127Z,31.23
2018-12-13T03:17:15.051Z,29.20
2018-12-13T03:19:45.105Z,29.97
2018-12-13T03:22:14.228Z,28.50
2018-12-13T03:24:43.250Z,27.40
2018-12-13T03:27:12.345Z,28.27
2018-12-13T03:29:41.548Z,26.73
2018-12-13T03:32:10.569Z,26.50
2018-12-13T03:34:39.577Z,27.90
2018-12-13T03:37:08.680Z,25.57
2018-12-13T03:39:37.702Z,25.40
2018-12-13T03:42:06.834Z,24.60
2018-12-13T03:44:35.822Z,24.60
2018-12-13T03:47:04.950Z,24.40
2018-12-13T03:49:33.953Z,23.33
2018-12-13T03:52:02.754Z,23.57
2018-12-13T03:54:31.771Z,23.90
2018-12-13T03:57:00.763Z,21.80
2018-12-13T03:59:29.776Z,22.63
2018-12-13T04:01:58.793Z,22.97
2018-12-13T04:04:28.005Z,21.67
2018-12-13T04:06:56.908Z,22.07
2018-12-13T04:09:25.973Z,21.63
2018-12-13T04:11:54.922Z,18.63
2018-12-13T04:14:23.921Z,17.97
2018-12-13T04:16:52.814Z,18.00
2018-12-13T04:19:21.572Z,15.63
2018-12-13T04:21:50.577Z,15.60
2018-12-13T04:24:19.609Z,14.40
2018-12-13T04:26:48.622Z,14.10
2018-12-13T04:29:17.620Z,15.40
2018-12-13T04:31:46.613Z,14.30
2018-12-13T04:34:15.624Z,13.30
2018-12-13T04:36:44.633Z,12.77
2018-12-13T04:39:13.587Z,15.70
2018-12-13T04:41:42.651Z,14.50
2018-12-13T04:44:11.557Z,14.90
2018-12-13T04:46:40.703Z,14.43
2018-12-13T04:49:09.804Z,13.40
2018-12-13T04:51:38.911Z,13.53
2018-12-13T04:54:07.928Z,14.77
2018-12-13T04:56:36.925Z,14.90
2018-12-13T04:59:05.824Z,14.77
2018-12-13T05:01:34.841Z,14.53
2018-12-13T05:04:03.862Z,16.10
2018-12-13T05:06:32.961Z,16.00
2018-12-13T05:09:01.913Z,17.97
2018-12-13T05:11:30.786Z,17.03
2018-12-13T05:13:59.783Z,19.70
2018-12-13T05:16:28.818Z,18.07
2018-12-13T05:18:57.815Z,17.87
2018-12-13T05:21:26.818Z,18.33
2018-12-13T05:23:55.822Z,18.93
2018-12-13T05:26:24.955Z,20.30
2018-12-13T05:28:53.958Z,19.57
2018-12-13T05:31:23.085Z,18.90
2018-12-13T05:33:52.217Z,18.73
2018-12-13T05:36:21.102Z,17.87
2018-12-13T05:38:50.091Z,17.33
2018-12-13T05:41:19.209Z,17.33
2018-12-13T05:43:52.376Z,17.27
2018-12-13T05:46:21.433Z,16.87
2018-12-13T05:48:50.455Z,16.63
2018-12-13T05:51:19.461Z,16.40
2018-12-13T05:53:48.463Z,16.27
2018-12-13T05:56:17.316Z,15.63
2018-12-13T05:58:46.275Z,16.07
2018-12-13T06:01:15.292Z,15.43
2018-12-13T06:03:44.313Z,15.57
2018-12-13T06:06:13.439Z,15.30
2018-12-13T06:08:42.411Z,16.20
2018-12-13T06:11:11.426Z,15.63
2018-12-13T06:13:40.579Z,15.60
2018-12-13T06:16:09.655Z,15.30
2018-12-13T06:18:38.780Z,14.87
2018-12-13T06:21:11.873Z,15.13
2018-12-13T06:23:38.945Z,15.57
2018-12-13T06:26:08.556Z,15.20
2018-12-13T06:28:37.593Z,15.43
2018-12-13T06:31:06.710Z,14.97
2018-12-13T06:33:35.730Z,15.10
2018-12-13T06:36:04.937Z,14.67
2018-12-13T06:38:33.936Z,14.07
2018-12-13T06:41:02.936Z,14.77
2018-12-13T06:43:31.923Z,14.10
2018-12-13T06:46:00.906Z,15.23
2018-12-13T06:48:29.974Z,14.73
2018-12-13T06:50:58.975Z,14.50
2018-12-13T06:53:27.889Z,14.43
2018-12-13T06:55:56.903Z,14.50
2018-12-13T06:58:25.789Z,14.10
2018-12-13T07:00:54.941Z,13.73
2018-12-13T07:03:23.944Z,13.30
2018-12-13T07:05:52.948Z,13.37
2018-12-13T07:08:21.870Z,13.10
2018-12-13T07:10:50.878Z,13.30
2018-12-13T07:13:19.905Z,12.93
2018-12-13T07:15:48.873Z,12.60
2018-12-13T07:18:17.869Z,12.60
2018-12-13T07:20:46.991Z,13.07
2018-12-13T07:23:16.117Z,12.30
2018-12-13T07:25:45.136Z,12.50
2018-12-13T07:28:14.348Z,11.33
2018-12-13T07:30:43.977Z,11.73
2018-12-13T07:33:12.956Z,11.80
2018-12-13T07:35:41.884Z,11.83
2018-12-13T07:38:14.186Z,11.60
2018-12-13T07:40:42.003Z,11.67
2018-12-13T07:43:11.096Z,12.20
2018-12-13T07:45:40.180Z,11.23
2018-12-13T07:48:09.197Z,11.10
2018-12-13T07:50:38.159Z,11.20
2018-12-13T07:53:07.225Z,10.43
2018-12-13T07:55:36.225Z,11.00
2018-12-13T07:58:05.180Z,11.00
2018-12-13T08:00:34.148Z,11.17
2018-12-13T08:03:03.298Z,11.20
2018-12-13T08:05:32.368Z,9.97
2018-12-13T08:08:01.489Z,10.00
2018-12-13T08:10:30.588Z,10.43
2018-12-13T08:12:59.621Z,10.17
2018-12-13T08:15:28.720Z,10.63
2018-12-13T08:17:57.840Z,10.40
2018-12-13T08:20:29.760Z,9.93
2018-12-13T08:22:59.495Z,9.70
2018-12-13T08:25:28.445Z,10.03
2018-12-13T08:27:57.671Z,9.20
2018-12-13T08:30:26.678Z,9.93
2018-12-13T08:32:55.667Z,9.60
2018-12-13T08:35:24.580Z,11.07
2018-12-13T08:37:53.519Z,9.80
2018-12-13T08:40:22.634Z,10.37
2018-12-13T08:42:51.724Z,10.23
2018-12-13T08:45:20.618Z,10.30
2018-12-13T08:47:49.430Z,10.30
2018-12-13T08:50:18.382Z,9.90
2018-12-13T08:52:47.446Z,9.50
2018-12-13T08:55:17.188Z,9.40
2018-12-13T08:57:46.195Z,10.90
2018-12-13T09:00:15.174Z,10.50
2018-12-13T09:02:44.096Z,9.67
2018-12-13T09:05:13.116Z,10.03
2018-12-13T09:07:42.045Z,10.20
2018-12-13T09:10:10.998Z,9.87
2018-12-13T09:12:39.849Z,9.93
2018-12-13T09:15:08.949Z,9.83
2018-12-13T09:17:37.932Z,10.30
2018-12-13T09:20:06.977Z,10.30
2018-12-13T09:22:35.980Z,9.60
2018-12-13T09:25:05.218Z,10.33
2018-12-13T09:27:34.220Z,10.63
2018-12-13T09:30:03.308Z,10.03
2018-12-13T09:32:32.341Z,9.90
2018-12-13T09:35:01.949Z,10.43
2018-12-13T09:37:30.767Z,10.57
2018-12-13T09:39:59.895Z,9.83
2018-12-13T09:42:28.998Z,10.60
2018-12-13T09:44:57.972Z,11.37
2018-12-13T09:47:26.901Z,10.03
2018-12-13T09:49:56.031Z,11.00
2018-12-13T09:52:25.137Z,11.47
2018-12-13T09:54:54.163Z,11.70
2018-12-13T09:57:23.264Z,11.10
2018-12-13T09:59:52.820Z,11.17
2018-12-13T10:02:21.720Z,11.80
2018-12-13T10:04:50.591Z,11.27
2018-12-13T10:07:19.592Z,12.00
2018-12-13T10:09:48.621Z,11.47
2018-12-13T10:12:18.116Z,11.77
2018-12-13T10:14:46.945Z,11.13
2018-12-13T10:17:15.965Z,11.00
2018-12-13T10:19:44.977Z,11.27
2018-12-13T10:22:13.974Z,11.60
2018-12-13T10:24:42.994Z,12.20
2018-12-13T10:27:12.645Z,11.20
2018-12-13T10:29:41.724Z,11.63
2018-12-13T10:32:10.742Z,13.27
2018-12-13T10:34:39.776Z,11.90
2018-12-13T10:37:08.864Z,12.30
2018-12-13T10:39:37.883Z,12.63
2018-12-13T10:42:06.999Z,12.30
2018-12-13T10:44:36.722Z,12.80
2018-12-13T10:47:06.037Z,12.73
2018-12-13T10:49:34.934Z,12.83
2018-12-13T10:52:03.885Z,12.30
2018-12-13T10:54:32.854Z,12.97
2018-12-13T10:57:01.875Z,13.10
2018-12-13T10:59:30.888Z,12.43
2018-12-13T11:02:01.606Z,13.80
2018-12-13T11:04:30.738Z,12.00
2018-12-13T11:06:59.747Z,14.50
2018-12-13T11:09:28.762Z,14.43
2018-12-13T11:11:57.767Z,13.87
2018-12-13T11:14:26.720Z,14.17
2018-12-13T11:16:55.918Z,13.83
2018-12-13T11:19:25.008Z,14.07
2018-12-13T11:21:54.013Z,59.90
2018-12-13T11:24:23.037Z,75.13
2018-12-13T11:26:52.357Z,72.00
2018-12-13T11:29:34.308Z,66.70
2018-12-13T11:32:03.277Z,63.67
2018-12-13T11:34:32.289Z,64.83
2018-12-13T11:37:01.283Z,66.70
2018-12-13T11:39:30.396Z,67.87
2018-12-13T11:41:59.402Z,71.07
2018-12-13T11:44:28.435Z,70.50
2018-12-13T11:46:57.532Z,70.83
2018-12-13T11:49:26.589Z,69.63
2018-12-13T11:51:55.648Z,73.67
2018-12-13T11:54:41.410Z,72.57
2018-12-13T11:57:10.386Z,71.87
2018-12-13T11:59:39.480Z,78.20
2018-12-13T12:02:08.591Z,81.37
2018-12-13T12:04:37.695Z,85.20
2018-12-13T12:07:06.617Z,86.00
2018-12-13T12:09:35.715Z,83.83
2018-12-13T12:12:04.880Z,85.07
2018-12-13T12:14:33.947Z,88.40
2018-12-13T12:17:03.059Z,86.50
2018-12-13T12:19:31.888Z,87.43
2018-12-13T12:22:00.771Z,101.53
2018-12-13T12:24:29.808Z,100.80
2018-12-13T12:26:58.896Z,95.53
2018-12-13T12:29:28.007Z,89.57
2018-12-13T12:31:57.138Z,89.80
2018-12-13T12:34:26.106Z,88.00
2018-12-13T12:36:55.276Z,86.50
2018-12-13T12:39:24.364Z,84.43
2018-12-13T12:41:54.054Z,85.17
2018-12-13T12:44:25.054Z,83.47
2018-12-13T12:46:54.091Z,82.40
2018-12-13T12:49:23.179Z,84.87
2018-12-13T12:51:52.270Z,86.50
2018-12-13T12:54:21.291Z,85.13
2018-12-13T12:56:50.195Z,83.90
2018-12-13T12:59:19.309Z,83.20
2018-12-13T13:01:48.212Z,80.80
2018-12-13T13:04:17.336Z,77.93
2018-12-13T13:06:46.443Z,77.63
2018-12-13T13:09:15.370Z,73.20
2018-12-13T13:11:44.468Z,68.03
2018-12-13T13:14:13.612Z,66.50
2018-12-13T13:16:42.592Z,64.70
2018-12-13T13:19:12.261Z,61.03
2018-12-13T13:21:41.327Z,57.80
2018-12-13T13:24:10.234Z,59.30
2018-12-13T13:26:39.356Z,55.87
2018-12-13T13:29:08.457Z,53.97
2018-12-13T13:31:38.121Z,53.90
2018-12-13T13:34:07.091Z,52.80
2018-12-13T13:36:36.105Z,53.60
2018-12-13T13:39:07.325Z,51.03
2018-12-13T13:41:36.825Z,51.20
2018-12-13T13:44:05.795Z,51.27
2018-12-13T13:46:34.941Z,48.80
2018-12-13T13:49:03.907Z,49.70
2018-12-13T13:51:32.918Z,47.17
2018-12-13T13:54:01.947Z,47.20
2018-12-13T13:56:30.754Z,45.50
2018-12-13T13:58:59.854Z,45.27
2018-12-13T14:01:28.962Z,43.10
2018-12-13T14:03:58.131Z,43.17
2018-12-13T14:06:27.202Z,41.60
2018-12-13T14:08:56.323Z,40.80
2018-12-13T14:11:25.420Z,38.80
2018-12-13T14:13:54.415Z,37.60
2018-12-13T14:16:23.541Z,36.03
2018-12-13T14:18:52.615Z,25.50
2018-12-13T14:21:21.711Z,19.60
2018-12-13T14:23:50.649Z,22.90
2018-12-13T14:26:19.796Z,24.53
2018-12-13T14:28:48.916Z,27.33
2018-12-13T14:31:18.032Z,27.60
2018-12-13T14:33:47.138Z,26.17
2018-12-13T14:36:16.143Z,28.03
2018-12-13T14:38:45.169Z,27.17
2018-12-13T14:41:14.163Z,27.60
2018-12-13T14:43:42.967Z,26.97
2018-12-13T14:46:11.810Z,26.27
2018-12-13T14:48:40.920Z,25.93
2018-12-13T14:51:10.013Z,25.60
2018-12-13T14:53:39.139Z,24.80
2018-12-13T14:56:08.695Z,25.03
2018-12-13T14:58:37.646Z,26.17
2018-12-13T15:01:06.665Z,24.00
2018-12-13T15:03:35.668Z,24.07
2018-12-13T15:06:04.721Z,24.67
2018-12-13T15:08:33.690Z,23.93
2018-12-13T15:11:02.625Z,25.53
2018-12-13T15:13:31.500Z,23.93
2018-12-13T15:16:00.544Z,24.43
2018-12-13T15:18:29.426Z,23.50
2018-12-13T15:20:58.448Z,23.07
2018-12-13T15:23:27.551Z,23.33
2018-12-13T15:25:56.686Z,22.10
2018-12-13T15:28:25.687Z,23.07
2018-12-13T15:30:54.688Z,22.37
2018-12-13T15:33:23.802Z,22.53
2018-12-13T15:35:52.802Z,22.07
2018-12-13T15:38:21.716Z,21.90
2018-12-13T15:40:50.723Z,22.67
2018-12-13T15:43:19.738Z,19.90
2018-12-13T15:45:48.754Z,28.90
2018-12-13T15:48:17.882Z,29.70
2018-12-13T15:50:46.984Z,27.40
2018-12-13T15:53:16.100Z,25.60
2018-12-13T15:55:45.214Z,27.60
2018-12-13T15:58:14.218Z,28.83
2018-12-13T16:00:43.238Z,29.47
2018-12-13T16:03:14.104Z,32.47
2018-12-13T16:05:43.188Z,32.67
2018-12-13T16:08:12.184Z,31.50
2018-12-13T16:10:42.610Z,32.63
2018-12-13T16:13:11.845Z,32.40
2018-12-13T16:15:40.977Z,33.70
2018-12-13T16:18:10.075Z,33.40
2018-12-13T16:20:39.189Z,34.00
2018-12-13T16:23:08.173Z,34.00
2018-12-13T16:25:37.232Z,35.73
2018-12-13T16:28:06.191Z,33.13
2018-12-13T16:30:35.146Z,32.27
2018-12-13T16:33:04.128Z,34.10
2018-12-13T16:35:33.261Z,33.00
2018-12-13T16:38:02.384Z,32.80
2018-12-13T16:40:31.602Z,33.67
2018-12-13T16:43:00.710Z,35.50
2018-12-13T16:45:30.340Z,39.23
2018-12-13T16:47:59.339Z,42.20
2018-12-13T16:50:28.268Z,44.30
2018-12-13T16:52:57.375Z,43.90
2018-12-13T16:55:26.366Z,44.37
2018-12-13T16:57:55.465Z,44.70
2018-12-13T17:00:24.493Z,45.00
2018-12-13T17:02:54.027Z,48.53
2018-12-13T17:05:23.079Z,51.10
2018-12-13T17:07:52.036Z,54.30
2018-12-13T17:10:21.043Z,56.90
2018-12-13T17:12:50.063Z,56.03
2018-12-13T17:15:18.870Z,57.03
2018-12-13T17:17:47.965Z,57.43
2018-12-13T17:20:16.992Z,57.10
2018-12-13T17:22:46.603Z,56.10
2018-12-13T17:25:15.721Z,55.60
2018-12-13T17:27:44.884Z,55.50
2018-12-13T17:30:13.829Z,60.90
2018-12-13T17:32:43.172Z,61.50
2018-12-13T17:35:12.282Z,57.00
2018-12-13T17:37:41.178Z,42.00
2018-12-13T17:40:09.990Z,41.57
2018-12-13T17:42:39.102Z,50.50
2018-12-13T17:45:08.218Z,63.17
2018-12-13T17:47:37.329Z,61.50
2018-12-13T17:50:06.458Z,52.60
2018-12-13T17:52:35.677Z,55.27
2018-12-13T17:55:04.794Z,59.50
2018-12-13T17:57:34.215Z,58.43
2018-12-13T18:00:03.350Z,49.97
2018-12-13T18:02:32.374Z,50.70
2018-12-13T18:05:01.329Z,47.90
2018-12-13T18:07:30.243Z,48.50
2018-12-13T18:09:59.214Z,49.03
2018-12-13T18:12:28.285Z,48.47
2018-12-13T18:14:57.364Z,50.07
2018-12-13T18:17:26.485Z,48.10
2018-12-13T18:19:55.486Z,48.17
2018-12-13T18:22:24.508Z,48.20
2018-12-13T18:24:53.629Z,53.37
2018-12-13T18:27:22.636Z,52.50
2018-12-13T18:29:51.668Z,51.40
2018-12-13T18:32:21.010Z,53.37
2018-12-13T18:34:49.981Z,50.00
2018-12-13T18:37:18.989Z,49.87
2018-12-13T18:39:48.089Z,46.10
2018-12-13T18:42:17.229Z,46.87
2018-12-13T18:44:46.232Z,81.20
2018-12-13T18:47:15.357Z,49.47
2018-12-13T18:49:44.307Z,48.43
2018-12-13T18:52:13.342Z,47.90
2018-12-13T18:54:44.119Z,47.10
2018-12-13T18:57:13.129Z,46.90
2018-12-13T18:59:42.222Z,45.33
2018-12-13T19:02:11.330Z,45.40
2018-12-13T19:04:40.354Z,44.67
2018-12-13T19:07:09.444Z,43.80
2018-12-13T19:09:38.363Z,42.50
2018-12-13T19:12:07.357Z,51.83
2018-12-13T19:14:36.380Z,56.40
2018-12-13T19:17:05.586Z,47.40
2018-12-13T19:19:34.717Z,46.33
2018-12-13T19:22:03.838Z,44.80
2018-12-13T19:24:32.964Z,45.50
2018-12-13T19:27:01.905Z,46.80
2018-12-13T19:29:30.948Z,46.13
2018-12-13T19:31:59.972Z,44.40
2018-12-13T19:34:28.964Z,44.23
2018-12-13T19:36:57.994Z,44.53
2018-12-13T19:39:26.992Z,44.27
2018-12-13T19:41:56.001Z,43.20
2018-12-13T19:44:25.543Z,43.60
2018-12-13T19:46:55.372Z,42.67
2018-12-13T19:49:25.052Z,43.20
2018-12-13T19:51:54.025Z,43.30
2018-12-13T19:54:23.317Z,43.83
2018-12-13T19:56:52.393Z,42.63
2018-12-13T19:59:21.442Z,42.90
2018-12-13T20:01:50.555Z,43.87
2018-12-13T20:04:19.577Z,42.53
2018-12-13T20:06:48.686Z,42.60
2018-12-13T20:09:17.668Z,43.13
2018-12-13T20:11:47.632Z,41.10
2018-12-13T20:14:16.727Z,41.40
2018-12-13T20:16:45.705Z,42.00
2018-12-13T20:19:14.736Z,40.33
2018-12-13T20:21:44.137Z,40.70
2018-12-13T20:24:13.797Z,41.03
2018-12-13T20:26:43.083Z,41.07
2018-12-13T20:29:11.864Z,41.40
2018-12-13T20:31:40.834Z,40.40
2018-12-13T20:34:09.952Z,38.50
2018-12-13T20:36:38.946Z,38.80
2018-12-13T20:39:09.438Z,37.77
2018-12-13T20:41:39.176Z,37.63
2018-12-13T20:44:08.326Z,36.57
2018-12-13T20:46:37.364Z,34.73
2018-12-13T20:49:06.474Z,35.53
2018-12-13T20:51:35.466Z,35.47
2018-12-13T20:54:04.439Z,36.20
2018-12-13T20:56:33.814Z,35.13
2018-12-13T20:59:02.928Z,34.30
2018-12-13T21:01:31.910Z,34.40
2018-12-13T21:04:00.929Z,34.57
2018-12-13T21:06:30.002Z,32.50
2018-12-13T21:08:58.955Z,32.60
2018-12-13T21:11:28.171Z,34.20
2018-12-13T21:13:57.120Z,32.00
2018-12-13T21:16:26.089Z,31.53
2018-12-13T21:18:54.988Z,31.70
2018-12-13T21:21:23.994Z,34.13
2018-12-13T21:23:53.156Z,46.30
2018-12-13T21:26:22.602Z,45.50
2018-12-13T21:28:51.700Z,44.67
2018-12-13T21:31:21.381Z,46.67
2018-12-13T21:33:50.507Z,48.90
2018-12-13T21:36:19.494Z,47.60
2018-12-13T21:38:48.617Z,49.90
2018-12-13T21:41:17.525Z,51.40
2018-12-13T21:43:46.427Z,53.30
2018-12-13T21:46:15.531Z,53.47
2018-12-13T21:48:44.550Z,54.70
2018-12-13T21:51:13.661Z,54.40
2018-12-13T21:53:42.676Z,56.73
2018-12-13T21:56:11.676Z,57.27
2018-12-13T21:58:40.705Z,57.80
2018-12-13T22:01:09.708Z,57.50
2018-12-13T22:03:38.704Z,57.60
2018-12-13T22:06:07.712Z,58.00
2018-12-13T22:08:36.426Z,59.70
2018-12-13T22:11:05.541Z,61.80
2018-12-13T22:13:34.537Z,60.40
2018-12-13T22:16:03.456Z,58.30
2018-12-13T22:18:32.677Z,57.70
2018-12-13T22:21:01.819Z,56.30
2018-12-13T22:23:30.916Z,58.30
2018-12-13T22:26:00.003Z,56.43
2018-12-13T22:28:29.120Z,56.23
2018-12-13T22:30:58.235Z,56.93
2018-12-13T22:33:27.137Z,55.60
2018-12-13T22:35:56.159Z,53.30
2018-12-13T22:38:25.032Z,54.40
2018-12-13T22:40:53.963Z,53.90
2018-12-13T22:43:22.976Z,52.43
2018-12-13T22:45:52.001Z,52.23
2018-12-13T22:48:21.119Z,52.50
2018-12-13T22:50:50.111Z,49.60
2018-12-13T22:53:19.137Z,49.17
2018-12-13T22:55:48.139Z,47.40
2018-12-13T22:58:17.101Z,47.77
2018-12-13T23:00:46.024Z,46.70
2018-12-13T23:03:14.959Z,45.00
2018-12-13T23:05:43.864Z,44.20
2018-12-13T23:08:12.886Z,44.00
2018-12-13T23:10:42.001Z,41.97
2018-12-13T23:13:11.141Z,41.80
2018-12-13T23:15:40.359Z,40.50
2018-12-13T23:18:09.437Z,40.90
2018-12-13T23:20:38.348Z,39.50
2018-12-13T23:23:07.455Z,40.47
2018-12-13T23:25:36.371Z,38.40
2018-12-13T23:28:05.360Z,37.80
2018-12-13T23:30:34.396Z,37.27
2018-12-13T23:33:03.497Z,35.60
2018-12-13T23:35:32.341Z,36.10
2018-12-13T23:38:01.413Z,33.93
2018-12-13T23:40:30.532Z,33.70
2018-12-13T23:42:59.539Z,32.90
2018-12-13T23:45:28.539Z,32.30
2018-12-13T23:47:57.758Z,31.03
2018-12-13T23:50:26.936Z,30.67
2018-12-13T23:52:56.020Z,30.23
2018-12-13T23:55:25.212Z,29.77
2018-12-13T23:57:54.110Z,29.67
